KFCI

Richmond Executive-Chesterfield County Airport

Richmond, Virginia, USA
METAR KFCI 220456Z AUTO 00000KT 10SM CLR M08/M17 A3060 RMK AO2 SLP382 T10781172 FZRANO
Observed Flight Rules
Jan-22 @ 04:56 UTC (6 minutes ago) Visual Flight Rules
Visibility Clouds
10 miles
  • Clear skies
Temperatures Readings
Current -8°C / 18°F
Dewpoint -17°C / 1°F
Humidity 49%
Altimeter 30.6" Hg
Pressure 1038.2 hPa
Elevation 72
METAR KFCI 220456Z AUTO 00000KT 10SM CLR M08/M17 A3060 RMK AO2 SLP382 T10781172 FZRANO
Observed Flight Rules
Jan-22 @ 04:56 UTC
(6 minutes ago)
VFR
Clouds
  • Clear skies
Temperature Dewpoint
-8°C / 18°F -17°C / 1°F
Humidity Altimeter Pressure
49% 30.6" Hg 1038.2 hPa